createdAt,value
2022-12-01T00:01:50.209Z,47.60
2022-12-01T00:04:33.331Z,54.00
2022-12-01T00:10:17.459Z,52.60
2022-12-01T00:13:03.400Z,52.30
2022-12-01T00:15:46.187Z,52.60
2022-12-01T00:18:28.884Z,49.40
2022-12-01T00:21:16.576Z,53.70
2022-12-01T00:23:59.412Z,52.60
2022-12-01T00:26:42.852Z,48.00
2022-12-01T00:32:08.816Z,54.50
2022-12-01T00:34:51.591Z,48.50
2022-12-01T00:37:35.687Z,46.40
2022-12-01T00:40:18.634Z,45.30
2022-12-01T00:43:01.367Z,49.70
2022-12-01T00:45:44.409Z,50.70
2022-12-01T00:48:28.398Z,48.90
2022-12-01T00:51:11.191Z,49.00
2022-12-01T00:53:53.924Z,45.80
2022-12-01T00:56:36.681Z,46.70
2022-12-01T00:59:19.392Z,47.20
2022-12-01T01:02:06.608Z,45.30
2022-12-01T01:04:50.692Z,48.00
2022-12-01T01:07:33.433Z,49.90
2022-12-01T01:10:16.543Z,50.20
2022-12-01T01:12:59.542Z,48.00
2022-12-01T01:15:42.447Z,50.10
2022-12-01T01:18:25.893Z,51.50
2022-12-01T01:21:13.392Z,51.00
2022-12-01T01:23:56.358Z,48.00
2022-12-01T01:26:39.167Z,51.10
2022-12-01T01:32:04.987Z,48.60
2022-12-01T01:34:47.900Z,45.70
2022-12-01T01:40:13.388Z,51.50
2022-12-01T01:42:56.330Z,52.10
2022-12-01T01:45:39.186Z,55.50
2022-12-01T01:51:05.701Z,47.40
2022-12-01T01:53:53.566Z,45.50
2022-12-01T01:56:38.361Z,45.00
2022-12-01T01:59:29.058Z,48.20
2022-12-01T02:02:12.983Z,47.70
2022-12-01T02:05:01.876Z,46.30
2022-12-01T02:07:46.547Z,54.10
2022-12-01T02:10:47.707Z,48.60
2022-12-01T02:14:06.207Z,45.30
2022-12-01T02:17:01.158Z,47.60
2022-12-01T02:20:23.229Z,51.80
2022-12-01T02:23:29.831Z,52.20
2022-12-01T02:26:47.039Z,45.90
2022-12-01T02:29:42.029Z,45.90
2022-12-01T02:32:31.747Z,45.10
2022-12-01T02:35:43.295Z,52.70
2022-12-01T02:38:31.458Z,45.90
2022-12-01T02:41:24.812Z,46.30
2022-12-01T02:44:30.754Z,48.80
2022-12-01T02:47:19.227Z,44.90
2022-12-01T02:50:05.379Z,52.10
2022-12-01T02:52:49.194Z,46.00
2022-12-01T02:55:32.438Z,48.40
2022-12-01T02:58:15.695Z,47.30
2022-12-01T03:01:15.506Z,48.60
2022-12-01T03:04:23.079Z,43.60
2022-12-01T03:07:44.277Z,48.00
2022-12-01T03:10:47.207Z,43.80
2022-12-01T03:14:12.091Z,54.80
2022-12-01T03:16:58.839Z,45.70
2022-12-01T03:19:56.316Z,43.90
2022-12-01T03:22:47.130Z,48.80
2022-12-01T03:25:32.255Z,48.40
2022-12-01T03:28:21.661Z,48.50
2022-12-01T03:31:09.119Z,43.30
2022-12-01T03:34:05.161Z,45.10
2022-12-01T03:36:52.831Z,46.30
2022-12-01T03:39:39.487Z,43.90
2022-12-01T03:42:33.062Z,52.10
2022-12-01T03:45:22.512Z,44.10
2022-12-01T03:48:07.172Z,44.40
2022-12-01T03:51:16.712Z,46.20
2022-12-01T03:54:07.708Z,46.10
2022-12-01T03:56:56.835Z,47.90
2022-12-01T03:59:44.598Z,45.10
2022-12-01T04:02:29.499Z,42.10
2022-12-01T04:05:13.389Z,45.50
2022-12-01T04:07:56.336Z,48.40
2022-12-01T04:10:39.387Z,50.60
2022-12-01T04:13:25.637Z,41.90
2022-12-01T04:16:08.413Z,51.50
2022-12-01T04:18:51.549Z,44.70
2022-12-01T04:21:34.352Z,43.00
2022-12-01T04:27:01.034Z,45.10
2022-12-01T04:29:44.019Z,46.80
2022-12-01T04:32:27.037Z,45.80
2022-12-01T04:35:11.760Z,43.80
2022-12-01T04:37:54.540Z,47.20
2022-12-01T04:40:40.184Z,43.40
2022-12-01T04:43:22.876Z,45.40
2022-12-01T04:46:07.255Z,46.20
2022-12-01T04:48:51.983Z,46.50
2022-12-01T04:51:34.760Z,42.80
2022-12-01T04:59:43.759Z,47.60
2022-12-01T05:02:26.735Z,45.20
2022-12-01T05:05:14.404Z,45.50
2022-12-01T05:07:59.799Z,45.60
2022-12-01T05:10:43.204Z,45.40
2022-12-01T05:16:13.189Z,47.20
2022-12-01T05:19:21.767Z,44.30
2022-12-01T05:22:04.503Z,46.30
2022-12-01T05:24:47.442Z,44.50
2022-12-01T05:27:30.500Z,43.80
2022-12-01T05:30:13.423Z,43.80
2022-12-01T05:32:56.394Z,50.90
2022-12-01T05:35:39.232Z,39.50
2022-12-01T05:38:23.500Z,45.90
2022-12-01T05:41:06.974Z,46.80
2022-12-01T05:43:49.759Z,43.30
2022-12-01T05:46:32.812Z,45.60
2022-12-01T05:49:15.528Z,47.30
2022-12-01T05:51:58.247Z,47.10
2022-12-01T05:54:41.156Z,45.50
2022-12-01T06:00:08.288Z,44.00
2022-12-01T06:02:55.764Z,45.80
2022-12-01T06:05:40.766Z,51.20
2022-12-01T06:08:23.608Z,49.40
2022-12-01T06:13:49.215Z,49.00
2022-12-01T06:16:32.184Z,44.30
2022-12-01T06:19:15.761Z,55.10
2022-12-01T06:21:58.523Z,47.80
2022-12-01T06:27:24.403Z,44.20
2022-12-01T06:30:07.783Z,45.60
2022-12-01T06:32:50.638Z,43.50
2022-12-01T06:38:17.386Z,47.40
2022-12-01T06:43:43.224Z,45.30
2022-12-01T06:46:26.033Z,49.30
2022-12-01T06:49:14.039Z,52.80
2022-12-01T06:51:56.839Z,52.00
2022-12-01T06:57:22.747Z,54.50
2022-12-01T07:00:06.681Z,49.00
2022-12-01T07:02:49.672Z,47.90
2022-12-01T07:05:33.032Z,46.50
2022-12-01T07:08:15.925Z,48.70
2022-12-01T07:11:05.990Z,47.10
2022-12-01T07:13:50.933Z,49.50
2022-12-01T07:16:37.246Z,51.60
2022-12-01T07:19:20.255Z,43.30
2022-12-01T07:22:03.289Z,51.10
2022-12-01T07:24:46.077Z,48.90
2022-12-01T07:30:15.052Z,46.30
2022-12-01T07:32:59.814Z,48.00
2022-12-01T07:35:42.558Z,43.70
2022-12-01T07:38:30.052Z,46.40
2022-12-01T07:41:16.356Z,49.30
2022-12-01T07:43:59.568Z,46.70
2022-12-01T07:49:25.016Z,48.70
2022-12-01T07:52:08.865Z,48.60
2022-12-01T07:54:51.565Z,45.90
2022-12-01T07:57:34.293Z,48.40
2022-12-01T08:03:00.211Z,44.60
2022-12-01T08:05:43.612Z,45.40
2022-12-01T08:08:32.452Z,48.00
2022-12-01T08:11:27.249Z,48.70
2022-12-01T08:14:10.060Z,44.20
2022-12-01T08:16:52.923Z,45.90
2022-12-01T08:22:18.641Z,43.00
2022-12-01T08:25:01.514Z,42.90
2022-12-01T08:30:27.912Z,40.20
2022-12-01T08:33:10.738Z,39.30
2022-12-01T08:38:36.395Z,43.80
2022-12-01T08:41:20.149Z,48.30
2022-12-01T08:44:02.905Z,44.90
2022-12-01T08:49:28.276Z,46.10
2022-12-01T08:52:10.989Z,44.80
2022-12-01T08:54:53.883Z,49.00
2022-12-01T09:00:19.330Z,54.70
2022-12-01T09:03:02.056Z,51.10
2022-12-01T09:05:45.190Z,45.00
2022-12-01T09:11:19.354Z,59.00
2022-12-01T09:14:02.131Z,60.70
2022-12-01T09:19:29.836Z,57.30
2022-12-01T09:22:12.612Z,60.80
2022-12-01T09:27:38.175Z,63.90
2022-12-01T09:33:04.073Z,61.00
2022-12-01T09:35:46.814Z,62.70
2022-12-01T09:38:31.182Z,63.60
2022-12-01T09:41:19.299Z,64.70
2022-12-01T09:44:32.396Z,50.60
2022-12-01T09:47:24.417Z,58.90
2022-12-01T09:50:18.895Z,56.40
2022-12-01T09:53:08.649Z,56.90
2022-12-01T09:55:52.200Z,48.80
2022-12-01T09:58:35.223Z,51.70
2022-12-01T10:01:25.844Z,54.70
2022-12-01T10:04:17.722Z,44.20
2022-12-01T10:07:13.632Z,44.60
2022-12-01T10:10:02.688Z,46.20
2022-12-01T10:12:47.209Z,48.00
2022-12-01T10:15:35.329Z,45.70
2022-12-01T10:18:18.096Z,44.60
2022-12-01T10:21:07.346Z,46.80
2022-12-01T10:24:17.912Z,50.10
2022-12-01T10:27:16.115Z,48.70
2022-12-01T10:30:07.167Z,50.20
2022-12-01T10:32:58.353Z,52.00
2022-12-01T10:35:41.884Z,48.50
2022-12-01T10:38:34.910Z,51.90
2022-12-01T10:44:05.839Z,56.20
2022-12-01T10:46:55.711Z,52.40
2022-12-01T10:49:40.591Z,52.00
2022-12-01T10:52:34.075Z,54.50
2022-12-01T10:55:22.811Z,50.00
2022-12-01T10:58:16.400Z,50.40
2022-12-01T11:01:03.398Z,50.90
2022-12-01T11:03:52.789Z,48.50
2022-12-01T11:06:37.511Z,51.50
2022-12-01T11:09:26.631Z,48.60
2022-12-01T11:12:16.615Z,55.10
2022-12-01T11:15:00.569Z,53.20
2022-12-01T11:17:45.417Z,51.40
2022-12-01T11:20:28.265Z,48.50
2022-12-01T11:23:30.006Z,50.00
2022-12-01T11:26:16.648Z,49.50
2022-12-01T11:29:03.278Z,48.60
2022-12-01T11:31:49.042Z,48.40
2022-12-01T11:34:34.667Z,49.80
2022-12-01T11:37:20.516Z,48.90
2022-12-01T11:40:19.089Z,51.20
2022-12-01T11:43:06.197Z,50.90
2022-12-01T11:45:49.555Z,50.80
2022-12-01T11:48:38.117Z,50.00
2022-12-01T11:51:22.449Z,50.90
2022-12-01T11:54:28.567Z,56.50
2022-12-01T11:57:33.062Z,49.80
2022-12-01T12:00:16.365Z,55.80
2022-12-01T12:03:08.382Z,51.10
2022-12-01T12:06:41.411Z,51.90
2022-12-01T12:09:44.960Z,51.90
2022-12-01T12:12:45.237Z,51.70
2022-12-01T12:16:33.455Z,50.60
2022-12-01T12:19:28.966Z,48.60
2022-12-01T12:22:48.613Z,52.70
2022-12-01T12:26:13.901Z,47.40
2022-12-01T12:29:19.742Z,46.10
2022-12-01T12:32:02.654Z,49.70
2022-12-01T12:35:07.690Z,46.10
2022-12-01T12:38:28.812Z,47.20
2022-12-01T12:41:24.745Z,43.00
2022-12-01T12:44:13.619Z,46.30
2022-12-01T12:47:18.105Z,47.00
2022-12-01T12:50:31.798Z,48.20
2022-12-01T12:53:20.060Z,44.30
2022-12-01T12:56:07.114Z,44.50
2022-12-01T12:59:02.990Z,41.10
2022-12-01T13:02:27.277Z,44.30
2022-12-01T13:05:10.587Z,41.40
2022-12-01T13:08:03.656Z,41.50
2022-12-01T13:11:00.254Z,44.20
2022-12-01T13:14:01.485Z,46.80
2022-12-01T13:16:48.059Z,44.00
2022-12-01T13:19:35.195Z,44.30
2022-12-01T13:22:21.711Z,41.30
2022-12-01T13:25:05.579Z,44.20
2022-12-01T13:27:50.512Z,47.80
2022-12-01T13:30:33.468Z,49.10
2022-12-01T13:33:16.764Z,44.10
2022-12-01T13:36:38.005Z,45.90
2022-12-01T13:39:17.215Z,41.90
2022-12-01T13:42:03.046Z,39.10
2022-12-01T13:44:55.664Z,48.60
2022-12-01T13:47:47.509Z,45.60
2022-12-01T13:50:36.332Z,45.00
2022-12-01T13:53:19.044Z,47.50
2022-12-01T13:56:17.620Z,44.30
2022-12-01T13:59:00.420Z,42.70
2022-12-01T14:04:28.585Z,47.70
2022-12-01T14:07:33.655Z,45.60
2022-12-01T14:10:29.988Z,46.40
2022-12-01T14:13:19.364Z,42.40
2022-12-01T14:16:04.218Z,43.60
2022-12-01T14:18:49.948Z,43.70
2022-12-01T14:21:46.406Z,45.50
2022-12-01T14:24:43.615Z,43.60
2022-12-01T14:27:35.123Z,44.30
2022-12-01T14:30:44.811Z,45.90
2022-12-01T14:33:40.031Z,43.20
2022-12-01T14:36:28.284Z,42.90
2022-12-01T14:39:20.302Z,47.00
2022-12-01T14:42:05.340Z,40.00
2022-12-01T14:44:51.812Z,39.80
2022-12-01T14:48:04.464Z,39.00
2022-12-01T14:50:50.271Z,42.60
2022-12-01T14:53:36.480Z,36.50
2022-12-01T14:56:24.276Z,36.40
2022-12-01T14:59:26.308Z,34.20
2022-12-01T15:02:12.400Z,35.60
2022-12-01T15:05:15.608Z,34.60
2022-12-01T15:08:33.201Z,40.40
2022-12-01T15:11:11.108Z,36.20
2022-12-01T15:13:56.530Z,33.20
2022-12-01T15:16:41.107Z,27.20
2022-12-01T15:19:26.802Z,21.90
2022-12-01T15:22:09.568Z,22.60
2022-12-01T15:27:35.441Z,29.40
2022-12-01T15:33:02.312Z,23.40
2022-12-01T15:35:47.180Z,24.30
2022-12-01T15:38:32.783Z,26.00
2022-12-01T15:41:28.948Z,23.90
2022-12-01T15:44:21.599Z,30.80
2022-12-01T15:47:31.191Z,28.10
2022-12-01T15:50:46.176Z,27.60
2022-12-01T15:53:35.447Z,25.80
2022-12-01T15:56:26.260Z,29.30
2022-12-01T15:59:11.959Z,25.30
2022-12-01T16:01:54.925Z,25.20
2022-12-01T16:04:37.973Z,23.70
2022-12-01T16:07:20.801Z,21.90
2022-12-01T16:10:05.342Z,25.10
2022-12-01T16:12:48.120Z,21.40
2022-12-01T16:18:32.496Z,24.00
2022-12-01T16:21:16.354Z,23.60
2022-12-01T16:24:04.606Z,23.70
2022-12-01T16:26:55.977Z,25.00
2022-12-01T16:30:00.828Z,27.60
2022-12-01T16:32:44.552Z,28.10
2022-12-01T16:35:34.026Z,25.70
2022-12-01T16:38:23.091Z,25.90
2022-12-01T16:41:18.045Z,28.90
2022-12-01T16:44:27.130Z,26.00
2022-12-01T16:47:13.519Z,26.30
2022-12-01T16:49:56.588Z,26.50
2022-12-01T16:52:46.765Z,28.60
2022-12-01T16:55:54.869Z,23.90
2022-12-01T16:58:37.864Z,24.40
2022-12-01T17:01:20.748Z,26.80
2022-12-01T17:04:07.540Z,29.00
2022-12-01T17:06:52.258Z,30.10
2022-12-01T17:09:35.972Z,29.30
2022-12-01T17:12:19.095Z,26.20
2022-12-01T17:15:02.624Z,23.30
2022-12-01T17:17:45.979Z,24.40
2022-12-01T17:20:28.779Z,22.70
2022-12-01T17:25:54.893Z,21.50
2022-12-01T17:28:42.330Z,22.70
2022-12-01T17:31:25.105Z,23.80
2022-12-01T17:36:51.978Z,22.20
2022-12-01T17:39:34.992Z,22.00
2022-12-01T17:42:18.013Z,24.30
2022-12-01T17:45:02.766Z,25.00
2022-12-01T17:47:45.882Z,31.20
2022-12-01T17:50:28.796Z,26.20
2022-12-01T17:53:11.980Z,26.30
2022-12-01T17:58:37.780Z,24.00
2022-12-01T18:01:24.267Z,23.70
2022-12-01T18:04:11.615Z,26.30
2022-12-01T18:06:54.821Z,25.50
2022-12-01T18:09:38.439Z,26.00
2022-12-01T18:12:21.332Z,26.10
2022-12-01T18:15:07.220Z,28.00
2022-12-01T18:17:50.126Z,22.80
2022-12-01T18:20:33.769Z,24.90
2022-12-01T18:23:16.551Z,17.10
2022-12-01T18:28:45.966Z,22.20
2022-12-01T18:31:30.584Z,21.60
2022-12-01T18:34:15.664Z,21.10
2022-12-01T18:39:41.524Z,20.60
2022-12-01T18:45:08.580Z,21.20
2022-12-01T18:47:51.332Z,19.60
2022-12-01T18:53:18.233Z,19.40
2022-12-01T18:56:06.978Z,15.90
2022-12-01T18:59:03.006Z,16.00
2022-12-01T19:01:47.622Z,16.70
2022-12-01T19:04:30.491Z,18.00
2022-12-01T19:09:56.453Z,16.10
2022-12-01T19:12:42.088Z,18.10
2022-12-01T19:15:25.000Z,15.60
2022-12-01T19:18:08.348Z,15.90
2022-12-01T19:23:34.471Z,16.30
2022-12-01T19:26:20.101Z,17.40
2022-12-01T19:29:04.492Z,16.10
2022-12-01T19:31:47.271Z,16.30
2022-12-01T19:37:13.092Z,16.80
2022-12-01T19:42:38.847Z,16.00
2022-12-01T19:48:05.679Z,16.40
2022-12-01T19:50:48.400Z,17.00
2022-12-01T19:53:33.776Z,17.50
2022-12-01T19:56:18.541Z,16.10
2022-12-01T19:59:01.456Z,18.40
2022-12-01T20:01:44.428Z,18.80
2022-12-01T20:04:27.412Z,18.30
2022-12-01T20:09:52.865Z,22.90
2022-12-01T20:12:37.179Z,20.70
2022-12-01T20:15:21.169Z,20.30
2022-12-01T20:18:04.216Z,18.00
2022-12-01T20:20:46.971Z,16.50
2022-12-01T20:26:14.908Z,19.30
2022-12-01T20:29:01.774Z,20.30
2022-12-01T20:31:48.473Z,20.30
2022-12-01T20:34:36.261Z,25.70
2022-12-01T20:37:19.080Z,25.00
2022-12-01T20:42:44.722Z,24.50
2022-12-01T20:48:11.088Z,28.20
2022-12-01T20:50:54.000Z,24.80
2022-12-01T20:53:36.840Z,21.60
2022-12-01T20:56:20.397Z,21.60
2022-12-01T20:59:03.730Z,22.40
2022-12-01T21:01:46.510Z,26.40
2022-12-01T21:07:11.924Z,26.40
2022-12-01T21:12:59.676Z,21.70
2022-12-01T21:15:52.659Z,25.30
2022-12-01T21:21:41.244Z,23.50
2022-12-01T21:24:33.548Z,21.80
2022-12-01T21:27:18.557Z,22.80
2022-12-01T21:30:05.235Z,22.20
2022-12-01T21:32:49.542Z,22.10
2022-12-01T21:35:32.372Z,20.60
2022-12-01T21:38:20.464Z,23.70
2022-12-01T21:41:20.738Z,23.40
2022-12-01T21:44:13.476Z,25.00
2022-12-01T21:46:57.938Z,23.10
2022-12-01T21:49:41.328Z,23.40
2022-12-01T21:52:39.489Z,20.50
2022-12-01T21:55:26.255Z,23.00
2022-12-01T21:58:28.366Z,21.30
2022-12-01T22:01:31.717Z,21.70
2022-12-01T22:04:39.839Z,21.70
2022-12-01T22:07:23.063Z,26.80
2022-12-01T22:10:44.294Z,26.50
2022-12-01T22:13:39.945Z,29.90
2022-12-01T22:16:30.455Z,25.00
2022-12-01T22:19:35.833Z,25.90
2022-12-01T22:22:26.255Z,30.80
2022-12-01T22:25:25.702Z,26.20
2022-12-01T22:28:16.956Z,29.80
2022-12-01T22:30:59.748Z,30.10
2022-12-01T22:33:42.887Z,30.80
2022-12-01T22:36:29.331Z,29.50
2022-12-01T22:39:34.608Z,28.00
2022-12-01T22:42:35.317Z,24.70
2022-12-01T22:45:26.632Z,27.30
2022-12-01T22:48:54.979Z,29.00
2022-12-01T22:51:48.789Z,27.20
2022-12-01T22:54:39.639Z,24.70
2022-12-01T22:57:33.011Z,30.50
2022-12-01T23:00:19.005Z,34.00
2022-12-01T23:03:01.849Z,30.40
2022-12-01T23:05:45.601Z,27.00
2022-12-01T23:08:28.365Z,28.50
2022-12-01T23:13:55.799Z,27.00
2022-12-01T23:16:40.254Z,29.50
2022-12-01T23:19:23.032Z,30.70
2022-12-01T23:22:05.851Z,33.20
2022-12-01T23:27:31.863Z,28.20
2022-12-01T23:33:19.664Z,31.10
2022-12-01T23:36:05.038Z,33.60
2022-12-01T23:38:55.648Z,34.60
2022-12-01T23:41:45.594Z,35.60
2022-12-01T23:44:41.278Z,34.40
2022-12-01T23:47:29.388Z,39.10
2022-12-01T23:50:19.164Z,38.30
2022-12-01T23:53:02.360Z,38.10
2022-12-01T23:55:45.217Z,36.60
